Portada
METAR-TAF:

METAR-TAF

Aeroports :

Antananarivo, Madagascar

latitud: 18-48S, longitud: 047-29E, altitud: 1279 m

Observació

L'informe es va fer fa 24 minuts, a les 12:30 UTC
Vent 9 kt del Sud-Est, variant entre Est/Sud-Est i Sud
Temperatura 26°C
Humitat 37%
Pressió 1021 hPa
Visibilitat 10 km o més
Escasses núvols a una alçada de 3000 ft

METAR: FMMI 301230Z 14009KT 110V180 9999 FEW030 26/10 Q1021 NOSIG

Hora: 15:54 (12:54 UTC)

Pronòstic

L'informe es va fer fa 1 hora i 54 minuts, a les 11:00 UTC
Pronòstic vàlid del 30 a les 12 UTC al 31 a les 18 UTC
Vent 5 kt del Sud-Est
Visibilitat 10 km o més
Escasses núvols a una alçada de 1700 ft
Núvols disperses a una alçada de 2000 ft
Probabilitat 30%
l' 31 a les 02 UTC al 31 a les 06 UTC
Visibilitat: 2000 m
boirina

TAF: FMMI 301100Z 3012/3118 14005KT 9999 FEW017 SCT020 PROB30 3102/3106 2000 BR

Observacions i pronòstics meteorològics de més de 4000 aeroports (METAR i TAF).

Les estacions disponibles són els punts grocs i vermells al mapa.

Posi el ratolí al punt desitjat per veure el nom de l'estació.

Feu clic per veure les observacions i els pronòstics meteorològics.

Per canviar el mapa: feu clic els botons verds amb una creu de color negre per apropar; al botó verd amb un guió per allunyar la imatge; o en les fletxes verdes per a mapes adjacents.


METAR-TAF: